Time;durP1;ratioP1;P1;durP2;ratioP2;P2;SDS_P1;SDS_P2;PMS_P1;PMS_P2;Temp;Humidity;BMP_temperature;BMP_pressure;BME280_temperature;BME280_humidity;BME280_pressure;Samples;Min_cycle;Max_cycle;Signal;HPM_P1;HPM_P2
2023/05/12 00:02:16;;;;;;;2.20;2.00;;;;;;;;;;4974613;28;20443;-81
2023/05/12 00:04:43;;;;;;;2.85;2.20;;;;;;;;;;4995188;28;20042;-80
2023/05/12 00:07:08;;;;;;;2.95;2.38;;;;;;;;;;4982734;28;20018;-79
2023/05/12 00:09:33;;;;;;;4.40;2.17;;;;;;;;;;4998996;28;20037;-79
2023/05/12 00:11:58;;;;;;;3.38;2.17;;;;;;;;;;5017325;28;20014;-79
2023/05/12 00:14:24;;;;;;;2.58;2.25;;;;;;;;;;5010039;28;20393;-80
2023/05/12 00:16:50;;;;;;;3.25;2.17;;;;;;;;;;4979825;28;20113;-80
2023/05/12 00:19:19;;;;;;;4.93;2.17;;;;;;;;;;4992669;28;20121;-80
2023/05/12 00:21:45;;;;;;;2.53;2.20;;;;;;;;;;4974850;28;20018;-79
2023/05/12 00:24:11;;;;;;;6.45;1.92;;;;;;;;;;4999138;28;20089;-79
2023/05/12 00:26:36;;;;;;;2.63;1.70;;;;;;;;;;4992620;28;20522;-80
2023/05/12 00:29:02;;;;;;;3.10;2.03;;;;;;;;;;4976539;28;20056;-79
2023/05/12 00:31:28;;;;;;;3.55;2.00;;;;;;;;;;4973801;28;20078;-79
2023/05/12 00:33:54;;;;;;;2.70;2.10;;;;;;;;;;4954966;28;20037;-78
2023/05/12 00:36:19;;;;;;;1.88;1.77;;;;;;;;;;4978477;28;20029;-78
2023/05/12 00:38:45;;;;;;;7.22;1.38;;;;;;;;;;5012751;28;20018;-78
2023/05/12 00:41:10;;;;;;;3.13;1.90;;;;;;;;;;4989160;28;20026;-79
2023/05/12 00:43:35;;;;;;;3.78;2.08;;;;;;;;;;4967654;28;20062;-78
2023/05/12 00:46:03;;;;;;;2.28;1.73;;;;;;;;;;4986515;28;20539;-79
2023/05/12 00:48:28;;;;;;;2.33;1.73;;;;;;;;;;4998645;28;20029;-79
2023/05/12 00:50:54;;;;;;;4.30;2.70;;;;;;;;;;4993359;28;20621;-78
2023/05/12 00:53:20;;;;;;;2.30;2.03;;;;;;;;;;4965593;28;20019;-78
2023/05/12 00:55:45;;;;;;;6.70;2.22;;;;;;;;;;4979815;28;20022;-77
2023/05/12 00:58:11;;;;;;;2.28;2.08;;;;;;;;;;4973807;28;20057;-79
2023/05/12 01:00:36;;;;;;;2.30;2.10;;;;;;;;;;4977081;28;20037;-79
2023/05/12 01:03:01;;;;;;;3.63;1.90;;;;;;;;;;4989141;28;20019;-78
2023/05/12 01:05:30;;;;;;;2.28;1.92;;;;;;;;;;4990051;28;20415;-79
2023/05/12 01:07:58;;;;;;;3.83;1.92;;;;;;;;;;4996406;28;20195;-79
2023/05/12 01:10:23;;;;;;;3.28;1.70;;;;;;;;;;5010143;28;20508;-78
2023/05/12 01:12:49;;;;;;;2.83;1.90;;;;;;;;;;5008980;28;20022;-79
2023/05/12 01:15:15;;;;;;;3.35;2.30;;;;;;;;;;4999047;28;20030;-79
2023/05/12 01:17:43;;;;;;;5.80;2.58;;;;;;;;;;4971864;28;20801;-79
2023/05/12 01:20:10;;;;;;;4.45;1.83;;;;;;;;;;4989300;28;20577;-79
2023/05/12 01:22:36;;;;;;;3.25;2.20;;;;;;;;;;4989810;28;20148;-78
2023/05/12 01:25:03;;;;;;;2.20;2.00;;;;;;;;;;5005246;28;20022;-78
2023/05/12 01:27:28;;;;;;;2.33;2.10;;;;;;;;;;4988944;28;20539;-78
2023/05/12 01:29:55;;;;;;;3.20;2.13;;;;;;;;;;4970070;28;20117;-79
2023/05/12 01:32:21;;;;;;;4.95;2.08;;;;;;;;;;4986869;28;20157;-78
2023/05/12 01:34:46;;;;;;;5.00;1.73;;;;;;;;;;5000525;28;20101;-78
2023/05/12 01:37:11;;;;;;;2.35;2.10;;;;;;;;;;4988036;28;20029;-78
2023/05/12 01:39:37;;;;;;;3.30;1.90;;;;;;;;;;4991604;28;20019;-78
2023/05/12 01:42:03;;;;;;;2.97;2.10;;;;;;;;;;4986432;28;20097;-78
2023/05/12 01:44:28;;;;;;;8.05;2.67;;;;;;;;;;5000552;28;20060;-80
2023/05/12 01:46:53;;;;;;;3.03;2.72;;;;;;;;;;4968614;28;20073;-78
2023/05/12 01:49:20;;;;;;;3.55;2.90;;;;;;;;;;4986594;28;20634;-80
2023/05/12 01:51:45;;;;;;;10.40;3.47;;;;;;;;;;4968582;28;20033;-78
2023/05/12 01:54:12;;;;;;;3.85;3.13;;;;;;;;;;4981729;28;20053;-78
2023/05/12 01:56:37;;;;;;;6.32;2.92;;;;;;;;;;4991670;28;20455;-78
2023/05/12 01:59:02;;;;;;;3.53;3.10;;;;;;;;;;4979583;28;20010;-80
2023/05/12 02:01:27;;;;;;;4.22;3.83;;;;;;;;;;4985725;28;20117;-78
2023/05/12 02:04:24;;;;;;;6.35;4.28;;;;;;;;;;5006682;28;20025;-80
2023/05/12 02:07:24;;;;;;;4.95;4.45;;;;;;;;;;4980719;28;20507;-79
2023/05/12 02:10:13;;;;;;;5.68;3.95;;;;;;;;;;4978261;28;20034;-79
2023/05/12 02:13:18;;;;;;;5.97;5.05;;;;;;;;;;4972907;28;20023;-78
2023/05/12 02:15:44;;;;;;;6.53;5.28;;;;;;;;;;4997283;28;20081;-78
2023/05/12 02:18:21;;;;;;;6.15;5.57;;;;;;;;;;4984088;28;20030;-79
2023/05/12 02:20:46;;;;;;;8.73;5.22;;;;;;;;;;4997559;28;20031;-79
2023/05/12 02:23:11;;;;;;;5.95;5.32;;;;;;;;;;4967813;28;20514;-78
2023/05/12 02:25:36;;;;;;;7.80;5.45;;;;;;;;;;4971461;28;20031;-78
2023/05/12 02:28:03;;;;;;;6.85;6.25;;;;;;;;;;4983678;28;20054;-77
2023/05/12 02:30:28;;;;;;;9.73;5.93;;;;;;;;;;4966042;28;20030;-77
2023/05/12 02:32:54;;;;;;;7.13;5.97;;;;;;;;;;4965073;28;20088;-78
2023/05/12 02:35:22;;;;;;;10.05;6.47;;;;;;;;;;4985508;28;20385;-78
2023/05/12 02:37:48;;;;;;;8.33;7.60;;;;;;;;;;4985864;28;20034;-78
2023/05/12 02:40:13;;;;;;;7.80;6.90;;;;;;;;;;4967600;28;20023;-78
2023/05/12 02:42:39;;;;;;;8.27;7.05;;;;;;;;;;4997939;28;20025;-77
2023/05/12 02:45:04;;;;;;;8.18;7.32;;;;;;;;;;4993181;28;20046;-77
2023/05/12 02:47:35;;;;;;;10.32;7.82;;;;;;;;;;4982720;28;20034;-78
2023/05/12 02:50:02;;;;;;;12.38;11.18;;;;;;;;;;4969746;28;20035;-78
2023/05/12 02:52:27;;;;;;;11.15;8.93;;;;;;;;;;4958898;28;20050;-78
2023/05/12 02:54:53;;;;;;;10.65;8.95;;;;;;;;;;4964980;28;20112;-78
2023/05/12 02:57:18;;;;;;;8.45;7.68;;;;;;;;;;4974810;28;20030;-77
2023/05/12 02:59:43;;;;;;;12.13;9.38;;;;;;;;;;4967612;28;20030;-77
2023/05/12 03:02:09;;;;;;;11.48;9.40;;;;;;;;;;4967562;28;20021;-78
2023/05/12 03:04:35;;;;;;;10.07;9.18;;;;;;;;;;4964630;28;20030;-78
2023/05/12 03:07:01;;;;;;;11.38;10.00;;;;;;;;;;4972105;28;20026;-77
2023/05/12 03:09:26;;;;;;;9.02;8.32;;;;;;;;;;4977228;28;20049;-77
2023/05/12 03:11:52;;;;;;;10.63;9.63;;;;;;;;;;4983715;28;20587;-78
2023/05/12 03:14:17;;;;;;;11.10;9.45;;;;;;;;;;4966301;28;20084;-79
2023/05/12 03:17:18;;;;;;;9.85;8.95;;;;;;;;;;4960021;28;20046;-79
2023/05/12 03:19:43;;;;;;;12.05;9.85;;;;;;;;;;4975734;28;20026;-78
2023/05/12 03:22:08;;;;;;;15.30;10.85;;;;;;;;;;4991709;28;20030;-78
2023/05/12 03:24:35;;;;;;;10.70;9.70;;;;;;;;;;4992422;28;20069;-78
2023/05/12 03:27:00;;;;;;;10.30;9.30;;;;;;;;;;4991809;28;20026;-77
2023/05/12 03:29:26;;;;;;;10.60;9.50;;;;;;;;;;4992150;28;20499;-78
2023/05/12 03:31:54;;;;;;;9.80;9.00;;;;;;;;;;4974088;28;20070;-79
2023/05/12 03:34:19;;;;;;;10.93;9.38;;;;;;;;;;5005398;28;20065;-79
2023/05/12 03:40:17;;;;;;;11.13;10.13;;;;;;;;;;4971918;28;20500;-79
2023/05/12 03:42:45;;;;;;;13.18;11.40;;;;;;;;;;4970148;28;20085;-78
2023/05/12 03:45:53;;;;;;;11.30;10.20;;;;;;;;;;4989311;28;20030;-79
2023/05/12 03:48:23;;;;;;;11.02;10.02;;;;;;;;;;4957802;28;20119;-78
2023/05/12 03:50:50;;;;;;;11.63;9.90;;;;;;;;;;4969219;28;20082;-78
2023/05/12 03:53:30;;;;;;;9.93;8.93;;;;;;;;;;5000558;28;20026;-79
2023/05/12 03:55:56;;;;;;;;;;;;;;;;;;5002349;28;20061;-78
2023/05/12 03:58:23;;;;;;;9.70;8.80;;;;;;;;;;4983553;28;19967;-78
2023/05/12 04:01:00;;;;;;;9.93;9.02;;;;;;;;;;4974103;28;20037;-80
2023/05/12 04:03:26;;;;;;;9.75;8.80;;;;;;;;;;4971625;28;20030;-79
2023/05/12 04:08:51;;;;;;;10.40;8.63;;;;;;;;;;4991915;28;20156;-78
2023/05/12 04:11:16;;;;;;;9.35;8.18;;;;;;;;;;4970993;28;20120;-79
2023/05/12 04:13:47;;;;;;;10.23;8.88;;;;;;;;;;4985853;28;20644;-79
2023/05/12 04:16:41;;;;;;;8.52;7.63;;;;;;;;;;4973841;28;20125;-79
2023/05/12 04:19:06;;;;;;;9.20;8.27;;;;;;;;;;4976095;28;20027;-79
2023/05/12 04:21:32;;;;;;;9.35;7.70;;;;;;;;;;4989716;28;20026;-78
2023/05/12 07:06:33;;;;;;;2.10;2.00;;;;;;;;;;5037484;28;20021;-81
2023/05/12 07:19:18;;;;;;;2.63;2.42;;;;;;;;;;6044956;23;20017;-82
2023/05/12 07:21:44;;;;;;;2.47;2.13;;;;;;;;;;5019042;28;20034;-81
2023/05/12 07:29:26;;;;;;;2.95;2.28;;;;;;;;;;5567318;23;20057;-81
2023/05/12 07:31:52;;;;;;;3.17;2.40;;;;;;;;;;5020758;28;20074;-82
2023/05/12 07:34:17;;;;;;;2.25;2.05;;;;;;;;;;5022521;28;20024;-82
2023/05/12 07:36:43;;;;;;;2.88;2.33;;;;;;;;;;5036397;28;20017;-81
2023/05/12 07:39:18;;;;;;;2.22;2.08;;;;;;;;;;5022521;28;20086;-80
2023/05/12 07:41:43;;;;;;;3.03;2.20;;;;;;;;;;5021242;28;20027;-81
2023/05/12 07:46:44;;;;;;;2.78;2.20;;;;;;;;;;5066859;23;20054;-81
2023/05/12 07:49:15;;;;;;;4.78;2.28;;;;;;;;;;5014644;28;20034;-81
2023/05/12 07:51:44;;;;;;;5.35;2.60;;;;;;;;;;5016441;28;20041;-83
2023/05/12 07:54:09;;;;;;;;;;;;;;;;;;5016626;28;20026;-81
2023/05/12 07:56:36;;;;;;;2.90;2.10;;;;;;;;;;5019078;28;19913;-82
2023/05/12 07:59:07;;;;;;;7.65;2.30;;;;;;;;;;5019800;28;20027;-83
2023/05/12 08:01:33;;;;;;;2.95;2.00;;;;;;;;;;5038041;28;20033;-83
2023/05/12 08:11:53;;;;;;;4.97;2.70;;;;;;;;;;5528110;23;20076;-79
2023/05/12 08:14:18;;;;;;;3.22;2.25;;;;;;;;;;5012140;28;20034;-83
2023/05/12 08:16:45;;;;;;;3.60;2.35;;;;;;;;;;5024647;28;20044;-83
2023/05/12 08:19:30;;;;;;;4.40;2.40;;;;;;;;;;5013363;28;20087;-82
2023/05/12 08:21:56;;;;;;;3.65;2.22;;;;;;;;;;5006646;28;20021;-78
2023/05/12 08:24:30;;;;;;;2.15;2.00;;;;;;;;;;5020759;28;20033;-82
2023/05/12 08:49:26;;;;;;;4.05;2.30;;;;;;;;;;5056053;23;20038;-81
2023/05/12 08:57:08;;;;;;;3.38;2.42;;;;;;;;;;5412069;23;20053;-79
2023/05/12 09:04:44;;;;;;;3.45;2.08;;;;;;;;;;4427014;23;19928;-80
2023/05/12 09:07:12;;;;;;;3.70;2.08;;;;;;;;;;5177184;23;20057;-82
2023/05/12 09:10:09;;;;;;;5.03;1.92;;;;;;;;;;5016993;28;20093;-81
2023/05/12 09:13:02;;;;;;;2.83;1.92;;;;;;;;;;5033520;28;20030;-81
2023/05/12 09:15:32;;;;;;;2.40;1.98;;;;;;;;;;5000176;28;20980;-78
2023/05/12 09:17:58;;;;;;;4.25;2.72;;;;;;;;;;5007952;28;20029;-79
2023/05/12 09:20:24;;;;;;;2.22;2.03;;;;;;;;;;5012103;28;20027;-80
2023/05/12 09:22:55;;;;;;;3.92;1.95;;;;;;;;;;4989695;28;20034;-78
2023/05/12 09:25:20;;;;;;;2.90;2.30;;;;;;;;;;4979851;28;20039;-82
2023/05/12 09:27:48;;;;;;;2.42;2.17;;;;;;;;;;4996352;28;20476;-82
2023/05/12 09:43:46;;;;;;;2.65;1.50;;;;;;;;;;5063296;23;20296;-84
2023/05/12 09:49:03;;;;;;;2.17;1.70;;;;;;;;;;5171982;22;20034;-78
2023/05/12 09:51:29;;;;;;;1.67;1.58;;;;;;;;;;5009836;28;20041;-79
2023/05/12 09:54:07;;;;;;;3.30;1.88;;;;;;;;;;5008306;28;20023;-78
2023/05/12 09:59:16;;;;;;;2.25;1.63;;;;;;;;;;5157752;23;19928;-80
2023/05/12 10:04:57;;;;;;;1.40;1.30;;;;;;;;;;5043661;23;19969;-79
2023/05/12 10:07:45;;;;;;;1.52;1.38;;;;;;;;;;5512633;23;20020;-78
2023/05/12 10:13:06;;;;;;;2.95;1.42;;;;;;;;;;5656545;23;19914;-81
2023/05/12 10:20:58;;;;;;;1.90;1.33;;;;;;;;;;5152588;23;20051;-79
2023/05/12 10:23:24;;;;;;;1.50;1.40;;;;;;;;;;4991659;28;20072;-79
2023/05/12 10:25:49;;;;;;;3.47;1.48;;;;;;;;;;5012378;28;20034;-79
2023/05/12 10:28:16;;;;;;;2.85;1.40;;;;;;;;;;5158073;23;20120;-80
2023/05/12 10:33:32;;;;;;;2.10;1.30;;;;;;;;;;5059550;23;20539;-78
2023/05/12 10:35:58;;;;;;;1.80;1.23;;;;;;;;;;4997852;28;20011;-81
2023/05/12 10:38:24;;;;;;;2.13;1.40;;;;;;;;;;5505016;23;20077;-80
2023/05/12 10:41:02;;;;;;;2.85;1.50;;;;;;;;;;5312766;23;20089;-78
2023/05/12 10:43:47;;;;;;;2.50;1.30;;;;;;;;;;5039888;28;20518;-79
2023/05/12 10:46:26;;;;;;;2.47;1.40;;;;;;;;;;5363845;23;20545;-80
2023/05/12 10:49:12;;;;;;;1.98;1.40;;;;;;;;;;5025644;28;20048;-81
2023/05/12 10:51:48;;;;;;;2.40;1.42;;;;;;;;;;5026893;28;20093;-79
2023/05/12 10:54:26;;;;;;;2.28;1.92;;;;;;;;;;4996869;28;20030;-81
2023/05/12 10:56:56;;;;;;;2.70;1.50;;;;;;;;;;5022716;28;20022;-79
2023/05/12 11:02:39;;;;;;;1.80;1.42;;;;;;;;;;5084163;23;20073;-80
2023/05/12 11:05:10;;;;;;;2.47;1.30;;;;;;;;;;5007230;28;20042;-79
2023/05/12 11:07:54;;;;;;;2.35;1.58;;;;;;;;;;5004698;28;20014;-78
2023/05/12 11:10:21;;;;;;;5.07;1.80;;;;;;;;;;4991734;28;20042;-80
2023/05/12 11:12:48;;;;;;;2.15;1.17;;;;;;;;;;4990927;28;20023;-80
2023/05/12 11:15:22;;;;;;;4.43;1.20;;;;;;;;;;5003528;28;20050;-77
2023/05/12 11:18:15;;;;;;;1.65;1.55;;;;;;;;;;5002508;28;20038;-80
2023/05/12 11:23:09;;;;;;;2.88;1.50;;;;;;;;;;5028513;28;19921;-81
2023/05/12 11:25:51;;;;;;;5.25;1.83;;;;;;;;;;5030170;28;20643;-79
2023/05/12 11:28:29;;;;;;;2.40;1.55;;;;;;;;;;5031049;28;20017;-80
2023/05/12 11:36:36;;;;;;;4.00;1.58;;;;;;;;;;5097856;22;20050;-82
2023/05/12 11:47:08;;;;;;;2.08;1.50;;;;;;;;;;5547885;23;20037;-81
2023/05/12 11:52:18;;;;;;;3.33;1.80;;;;;;;;;;5860780;23;20051;-76
2023/05/12 11:55:09;;;;;;;1.73;1.40;;;;;;;;;;5064194;23;20054;-80
2023/05/12 11:57:36;;;;;;;4.57;1.70;;;;;;;;;;5001999;28;20038;-78
2023/05/12 12:00:23;;;;;;;3.55;1.50;;;;;;;;;;5033407;28;20093;-81
2023/05/12 12:05:24;;;;;;;1.70;1.60;;;;;;;;;;5181509;23;19969;-76
2023/05/12 12:07:51;;;;;;;2.70;1.60;;;;;;;;;;4985272;28;20026;-78
2023/05/12 12:12:58;;;;;;;2.17;1.63;;;;;;;;;;5146239;23;20293;-82
2023/05/12 12:23:32;;;;;;;5.43;1.52;;;;;;;;;;5265309;23;20124;-79
2023/05/12 12:26:16;;;;;;;1.67;1.52;;;;;;;;;;5011377;28;20030;-81
2023/05/12 12:28:45;;;;;;;7.22;3.05;;;;;;;;;;5413177;23;20118;-80
2023/05/12 12:31:11;;;;;;;4.97;1.60;;;;;;;;;;5309665;23;20598;-79
2023/05/12 12:39:25;;;;;;;4.93;1.60;;;;;;;;;;5293274;23;20057;-80
2023/05/12 12:41:51;;;;;;;3.20;1.58;;;;;;;;;;5024296;28;20040;-81
2023/05/12 12:44:23;;;;;;;2.13;1.70;;;;;;;;;;5028537;28;20093;-80
2023/05/12 12:49:23;;;;;;;5.22;1.98;;;;;;;;;;4152606;26;20065;-80
2023/05/12 12:51:49;;;;;;;1.77;1.42;;;;;;;;;;5085164;23;21213;-80
2023/05/12 12:56:50;;;;;;;2.55;1.70;;;;;;;;;;5307621;23;20111;-77
2023/05/12 13:04:25;;;;;;;2.95;1.60;;;;;;;;;;5396190;23;20052;-80
2023/05/12 13:06:52;;;;;;;4.43;1.73;;;;;;;;;;5017106;28;20033;-80
2023/05/12 13:09:18;;;;;;;2.17;1.50;;;;;;;;;;5018719;28;20038;-80
2023/05/12 13:11:52;;;;;;;2.75;1.50;;;;;;;;;;5031744;23;20351;-78
2023/05/12 13:14:18;;;;;;;4.85;1.92;;;;;;;;;;4993437;28;20014;-81
2023/05/12 13:16:46;;;;;;;2.33;1.80;;;;;;;;;;5157381;23;20084;-79
2023/05/12 13:19:14;;;;;;;3.70;1.67;;;;;;;;;;5455166;23;20753;-76
2023/05/12 13:21:41;;;;;;;2.92;1.42;;;;;;;;;;5510897;23;20145;-80
2023/05/12 13:32:05;;;;;;;1.75;1.65;;;;;;;;;;4835504;26;20073;-80
2023/05/12 13:39:48;;;;;;;5.05;1.90;;;;;;;;;;5871471;23;20038;-79
2023/05/12 13:53:02;;;;;;;4.32;1.80;;;;;;;;;;5685966;23;20038;-81
2023/05/12 13:58:04;;;;;;;1.85;1.52;;;;;;;;;;5695902;23;20042;-79
2023/05/12 14:03:06;;;;;;;2.30;1.83;;;;;;;;;;5242404;23;19928;-80
2023/05/12 14:08:15;;;;;;;3.00;2.00;;;;;;;;;;5537704;23;20034;-80
2023/05/12 14:10:53;;;;;;;1.55;1.45;;;;;;;;;;5479027;23;20062;-77
2023/05/12 14:13:19;;;;;;;3.60;1.90;;;;;;;;;;5010797;28;20030;-79
2023/05/12 14:22:04;;;;;;;3.75;1.80;;;;;;;;;;5013480;28;20049;-79
2023/05/12 14:24:41;;;;;;;2.05;1.83;;;;;;;;;;4988049;28;20034;-79
2023/05/12 14:27:38;;;;;;;4.93;1.63;;;;;;;;;;5016221;28;20034;-80
2023/05/12 14:30:06;;;;;;;2.45;2.05;;;;;;;;;;4983182;28;20035;-78
2023/05/12 14:32:33;;;;;;;4.03;1.90;;;;;;;;;;5004961;28;20010;-80
2023/05/12 14:41:07;;;;;;;2.17;1.90;;;;;;;;;;5249457;23;20061;-80
2023/05/12 14:57:20;;;;;;;4.43;1.95;;;;;;;;;;5626129;22;20076;-77
2023/05/12 14:59:46;;;;;;;7.00;2.00;;;;;;;;;;5062899;23;20073;-80
2023/05/12 15:07:25;;;;;;;3.95;2.13;;;;;;;;;;5344593;23;19921;-78
2023/05/12 15:09:50;;;;;;;4.13;2.10;;;;;;;;;;5179063;23;20092;-81
2023/05/12 15:17:41;;;;;;;2.42;1.80;;;;;;;;;;5336569;23;20094;-80
2023/05/12 15:22:53;;;;;;;3.30;2.22;;;;;;;;;;5053584;23;20077;-77
2023/05/12 15:30:57;;;;;;;2.10;2.00;;;;;;;;;;5698889;23;20070;-80
2023/05/12 15:46:48;;;;;;;5.95;2.70;;;;;;;;;;5570462;23;20060;-78
2023/05/12 15:49:14;;;;;;;1.95;1.77;;;;;;;;;;5017181;28;20034;-81
2023/05/12 15:51:39;;;;;;;2.50;2.30;;;;;;;;;;5469285;23;20054;-78
2023/05/12 15:54:05;;;;;;;3.20;2.60;;;;;;;;;;5122810;23;20068;-80
2023/05/12 16:02:19;;;;;;;3.13;2.38;;;;;;;;;;5457353;23;20495;-81
2023/05/12 16:12:30;;;;;;;3.35;2.28;;;;;;;;;;5616677;23;19993;-79
2023/05/12 16:17:32;;;;;;;3.70;2.42;;;;;;;;;;5018763;23;19922;-81
2023/05/12 16:20:12;;;;;;;6.72;2.70;;;;;;;;;;5006452;28;20034;-81
2023/05/12 16:23:09;;;;;;;2.45;2.20;;;;;;;;;;5285826;23;20068;-81
2023/05/12 16:25:35;;;;;;;3.88;2.80;;;;;;;;;;5037786;28;20025;-79
2023/05/12 16:28:02;;;;;;;2.30;2.10;;;;;;;;;;5030095;28;20009;-78
2023/05/12 16:30:27;;;;;;;4.10;2.50;;;;;;;;;;5049748;28;20033;-77
2023/05/12 16:32:53;;;;;;;3.97;2.50;;;;;;;;;;5257641;23;20066;-80
2023/05/12 16:35:18;;;;;;;7.70;2.92;;;;;;;;;;5263867;23;20040;-81
2023/05/12 16:43:12;;;;;;;3.83;2.85;;;;;;;;;;5018389;23;20058;-80
2023/05/12 16:45:41;;;;;;;5.28;3.03;;;;;;;;;;4998037;28;20031;-81
2023/05/12 16:48:10;;;;;;;4.73;2.93;;;;;;;;;;5412855;23;20033;-78
2023/05/12 16:53:23;;;;;;;2.97;2.67;;;;;;;;;;5279640;23;20042;-81
2023/05/12 17:43:30;;;;;;;3.80;3.15;;;;;;;;;;6114874;23;20041;31
2023/05/12 18:53:17;;;;;;;5.45;4.95;;;;;;;;;;5526614;22;20050;-82
2023/05/12 19:37:41;;;;;;;11.25;9.48;;;;;;;;;;5000117;28;20073;-81
2023/05/12 19:40:09;;;;;;;10.00;9.10;;;;;;;;;;4971453;28;20031;-81
2023/05/12 19:42:36;;;;;;;8.77;7.82;;;;;;;;;;4981709;28;20058;-82
2023/05/12 19:45:03;;;;;;;7.82;6.55;;;;;;;;;;4994501;28;20026;-80
2023/05/12 19:47:29;;;;;;;8.50;6.75;;;;;;;;;;4980264;28;20023;-81
2023/05/12 19:57:39;;;;;;;9.05;7.97;;;;;;;;;;5446006;23;20062;-81
2023/05/12 20:00:05;;;;;;;11.25;8.73;;;;;;;;;;4981138;28;20027;-82
2023/05/12 20:02:30;;;;;;;9.35;8.25;;;;;;;;;;5505648;23;20027;-81
2023/05/12 20:12:41;;;;;;;14.15;12.02;;;;;;;;;;5601122;23;20117;-80
2023/05/12 20:15:07;;;;;;;13.52;10.93;;;;;;;;;;5019044;28;20034;-80
2023/05/12 20:17:33;;;;;;;17.05;10.80;;;;;;;;;;5016438;28;20037;-81
2023/05/12 20:20:00;;;;;;;11.63;7.22;;;;;;;;;;5036929;28;20018;-80
2023/05/12 20:22:25;;;;;;;18.05;15.10;;;;;;;;;;5022375;28;20037;-81
2023/05/12 20:24:50;;;;;;;16.50;14.73;;;;;;;;;;5019625;28;20036;-81
2023/05/12 20:27:19;;;;;;;29.45;21.63;;;;;;;;;;5016520;28;20017;-82
2023/05/12 20:29:44;;;;;;;39.13;29.85;;;;;;;;;;5019694;28;20065;-82
2023/05/12 20:32:09;;;;;;;24.63;20.33;;;;;;;;;;5020803;28;20014;-82
2023/05/12 20:34:35;;;;;;;15.02;12.57;;;;;;;;;;5021282;28;20079;-81
2023/05/12 20:37:00;;;;;;;16.08;12.77;;;;;;;;;;5020856;28;20044;-82
2023/05/12 20:39:27;;;;;;;5.30;4.72;;;;;;;;;;5021611;28;20003;-82
2023/05/12 20:41:52;;;;;;;9.07;6.22;;;;;;;;;;5039261;28;20098;-82
2023/05/12 20:46:52;;;;;;;7.88;6.15;;;;;;;;;;5418197;22;20061;-82
2023/05/12 20:49:18;;;;;;;6.82;6.15;;;;;;;;;;5016602;28;20097;-82
2023/05/12 20:51:44;;;;;;;9.30;3.95;;;;;;;;;;5001631;28;20034;-81
2023/05/12 20:54:09;;;;;;;7.97;3.80;;;;;;;;;;4985666;28;20021;-81
2023/05/12 20:56:35;;;;;;;8.40;7.70;;;;;;;;;;5018951;28;20037;-80
2023/05/12 20:59:01;;;;;;;9.48;7.88;;;;;;;;;;5019203;28;20030;-81
2023/05/12 21:01:26;;;;;;;8.20;7.40;;;;;;;;;;5019194;28;20061;-81
2023/05/12 21:03:52;;;;;;;8.45;7.65;;;;;;;;;;5070168;23;20073;-81
2023/05/12 21:06:17;;;;;;;5.78;5.20;;;;;;;;;;5001098;28;20026;-81
2023/05/12 21:08:43;;;;;;;5.93;5.43;;;;;;;;;;5001087;28;20100;-81
2023/05/12 21:11:11;;;;;;;5.53;4.57;;;;;;;;;;4997054;28;20078;-81
2023/05/12 21:13:37;;;;;;;7.85;5.45;;;;;;;;;;4996094;28;20060;-80
2023/05/12 21:16:02;;;;;;;8.23;5.72;;;;;;;;;;4982884;28;20032;-80
2023/05/12 21:18:28;;;;;;;5.68;4.35;;;;;;;;;;4997564;28;20077;-80
2023/05/12 21:20:53;;;;;;;3.92;3.60;;;;;;;;;;4975991;28;20065;-80
2023/05/12 21:23:19;;;;;;;3.72;2.88;;;;;;;;;;5009267;28;20025;-79
2023/05/12 21:25:44;;;;;;;6.15;3.90;;;;;;;;;;5003869;28;20003;-80
2023/05/12 21:28:09;;;;;;;3.60;3.30;;;;;;;;;;4999650;28;20003;-81
2023/05/12 21:30:36;;;;;;;5.78;3.40;;;;;;;;;;4982560;28;20041;-81
2023/05/12 21:33:02;;;;;;;4.90;3.30;;;;;;;;;;4982074;28;20011;-81
2023/05/12 21:35:28;;;;;;;5.93;3.15;;;;;;;;;;4999624;28;20014;-80
2023/05/12 21:37:53;;;;;;;3.60;3.20;;;;;;;;;;5098183;23;20038;-81
2023/05/12 21:42:54;;;;;;;7.28;3.47;;;;;;;;;;5890665;23;20069;-82
2023/05/12 21:56:07;;;;;;;8.60;5.40;;;;;;;;;;5100431;27;2084374;-80
2023/05/12 21:58:33;;;;;;;5.28;4.78;;;;;;;;;;5151396;28;20034;-81
2023/05/12 22:00:58;;;;;;;7.25;5.90;;;;;;;;;;5150573;28;19999;-81
2023/05/12 22:03:24;;;;;;;5.50;5.00;;;;;;;;;;5150317;27;20086;-80
2023/05/12 22:05:49;;;;;;;5.95;4.22;;;;;;;;;;5131477;28;20020;-81
2023/05/12 22:08:15;;;;;;;4.15;2.75;;;;;;;;;;5162886;27;20011;-80
2023/05/12 22:10:40;;;;;;;4.50;2.35;;;;;;;;;;5169264;27;20010;-81
2023/05/12 22:13:07;;;;;;;2.55;2.35;;;;;;;;;;5183801;27;20015;-80
2023/05/12 22:15:33;;;;;;;3.75;2.53;;;;;;;;;;5158350;27;20019;-81
2023/05/12 22:17:59;;;;;;;3.58;2.92;;;;;;;;;;5172325;27;20022;-81
2023/05/12 22:20:26;;;;;;;3.10;2.80;;;;;;;;;;5172508;27;20014;-81
2023/05/12 22:22:51;;;;;;;3.85;3.00;;;;;;;;;;5129912;28;20041;-81
2023/05/12 22:25:18;;;;;;;4.45;2.92;;;;;;;;;;5150418;28;20046;-81
2023/05/12 22:27:44;;;;;;;3.90;2.90;;;;;;;;;;5131800;28;20015;-81
2023/05/12 22:30:12;;;;;;;2.33;2.13;;;;;;;;;;5134061;28;20027;-83
2023/05/12 22:32:39;;;;;;;2.50;2.17;;;;;;;;;;5154004;27;20048;-82
2023/05/12 22:35:09;;;;;;;4.05;2.13;;;;;;;;;;5574108;22;20055;-82
2023/05/12 22:37:49;;;;;;;3.70;1.52;;;;;;;;;;5054616;26;20057;-81
2023/05/12 22:42:48;;;;;;;2.20;1.95;;;;;;;;;;5075263;28;20045;-81
2023/05/12 22:45:14;;;;;;;2.30;1.50;;;;;;;;;;5048783;28;20124;-82
2023/05/12 22:50:18;;;;;;;5.35;4.22;;;;;;;;;;5388348;22;20075;-82
2023/05/12 22:52:44;;;;;;;6.35;2.28;;;;;;;;;;5127647;28;20057;-83
2023/05/12 22:55:09;;;;;;;6.78;2.65;;;;;;;;;;5123104;28;20039;-81
2023/05/12 22:57:37;;;;;;;2.60;1.70;;;;;;;;;;5129516;27;19992;-83
2023/05/12 23:00:04;;;;;;;4.72;4.32;;;;;;;;;;5115440;28;20030;-81
2023/05/12 23:02:35;;;;;;;7.47;6.55;;;;;;;;;;5119073;28;20024;-84
2023/05/12 23:05:02;;;;;;;7.68;5.43;;;;;;;;;;5119047;28;20038;-82
2023/05/12 23:07:28;;;;;;;5.43;5.00;;;;;;;;;;5094493;28;20089;-82
2023/05/12 23:09:53;;;;;;;3.30;2.13;;;;;;;;;;5115050;28;20053;-82
2023/05/12 23:12:18;;;;;;;5.13;3.97;;;;;;;;;;5116157;28;20022;-81
2023/05/12 23:14:44;;;;;;;8.02;6.22;;;;;;;;;;5117715;28;20041;-82
2023/05/12 23:17:09;;;;;;;9.18;5.88;;;;;;;;;;5118618;28;20023;-83
2023/05/12 23:19:35;;;;;;;10.38;5.70;;;;;;;;;;5119205;28;20031;-83
2023/05/12 23:22:01;;;;;;;13.27;8.55;;;;;;;;;;5122153;28;20083;-83
2023/05/12 23:24:26;;;;;;;6.03;5.15;;;;;;;;;;5112785;28;20087;-84
2023/05/12 23:26:55;;;;;;;3.20;2.90;;;;;;;;;;5093017;28;20096;-83
2023/05/12 23:29:34;;;;;;;4.05;2.83;;;;;;;;;;5115346;28;20016;-83
2023/05/12 23:32:01;;;;;;;4.47;1.83;;;;;;;;;;5117775;28;20039;-82
2023/05/12 23:34:28;;;;;;;1.77;1.65;;;;;;;;;;5117748;28;20055;-82
2023/05/12 23:36:53;;;;;;;1.83;1.33;;;;;;;;;;5112995;28;20035;-82
2023/05/12 23:39:19;;;;;;;3.08;1.58;;;;;;;;;;5117399;28;20035;-80
2023/05/12 23:41:45;;;;;;;2.53;1.60;;;;;;;;;;5105367;28;20531;-80
2023/05/12 23:44:10;;;;;;;4.70;1.92;;;;;;;;;;5127717;28;20421;-82
2023/05/12 23:46:37;;;;;;;4.43;1.50;;;;;;;;;;5111487;28;20036;-79
2023/05/12 23:49:04;;;;;;;3.47;1.60;;;;;;;;;;5128392;28;20115;-81
2023/05/12 23:51:29;;;;;;;2.08;1.77;;;;;;;;;;5129770;28;20004;-81
2023/05/12 23:53:55;;;;;;;4.50;1.80;;;;;;;;;;5126588;28;20031;-77
2023/05/12 23:56:21;;;;;;;7.88;2.05;;;;;;;;;;5126323;28;20077;-80
2023/05/12 23:58:52;;;;;;;5.57;1.80;;;;;;;;;;5120677;28;20027;-80
